Time;durP1;ratioP1;P1;durP2;ratioP2;P2;SDS_P1;SDS_P2;PMS_P1;PMS_P2;Temp;Humidity;BMP_temperature;BMP_pressure;BME280_temperature;BME280_humidity;BME280_pressure;Samples;Min_cycle;Max_cycle;Signal;HPM_P1;HPM_P2
2022/09/23 00:01:52;;;;;;;;;;;;;;;20.02;nan;95299.41;5508587;28;813;-66
2022/09/23 00:04:36;;;;;;;;;;;;;;;20.02;nan;95299.41;5508884;28;1013;-66
2022/09/23 00:07:20;;;;;;;;;;;;;;;20.01;nan;95292.44;5500030;28;1224;-66
2022/09/23 00:10:03;;;;;;;;;;;;;;;20.00;nan;95296.94;5508949;28;1989;-66
2022/09/23 00:12:46;;;;;;;;;;;;;;;20.00;nan;95291.59;5509082;28;1050;-66
2022/09/23 00:15:30;;;;;;;;;;;;;;;20.02;nan;95299.41;5508991;28;1108;-66
2022/09/23 00:18:12;;;;;;;;;;;;;;;;;;5499785;28;1020;-66
2022/09/23 00:20:56;;;;;;;;;;;;;;;19.99;nan;95283.81;5509141;28;1307;-66
2022/09/23 00:23:40;;;;;;;;;;;;;;;19.99;nan;95283.81;5508594;28;1042;-66
2022/09/23 00:26:23;;;;;;;;;;;;;;;20.00;nan;95290.78;5508689;28;1053;-66
2022/09/23 00:29:06;;;;;;;;;;;;;;;19.99;nan;95284.63;5500045;28;1902;-66
2022/09/23 00:31:49;;;;;;;;;;;;;;;19.99;nan;95294.47;5507621;28;986;-66
2022/09/23 00:34:32;;;;;;;;;;;;;;;19.99;nan;95289.97;5508708;28;1021;-67
2022/09/23 00:37:16;;;;;;;;;;;;;;;19.99;nan;95289.13;5508411;28;1021;-67
2022/09/23 00:39:59;;;;;;;;;;;;;;;19.98;nan;95282.16;5503670;28;1049;-67
2022/09/23 00:42:45;;;;;;;;;;;;;;;19.98;nan;95283.00;5503739;28;1237;-67
2022/09/23 00:45:29;;;;;;;;;;;;;;;19.98;nan;95282.16;5509043;28;1100;-67
2022/09/23 00:48:15;;;;;;;;;;;;;;;19.98;nan;95283.00;5508356;28;1926;-67
2022/09/23 00:50:58;;;;;;;;;;;;;;;19.98;nan;95282.16;5507075;28;982;-67
2022/09/23 00:53:41;;;;;;;;;;;;;;;;;;5501016;28;1530;-67
2022/09/23 00:56:25;;;;;;;;;;;;;;;19.97;nan;95285.84;5508168;28;1275;-68
2022/09/23 00:59:08;;;;;;;;;;;;;;;;;;5507829;28;995;-67
2022/09/23 01:01:53;;;;;;;;;;;;;;;19.96;nan;95279.69;5508250;28;1160;-67
2022/09/23 01:04:36;;;;;;;;;;;;;;;19.97;nan;95292.00;5499646;28;1209;-67
2022/09/23 01:07:19;;;;;;;;;;;;;;;19.97;nan;95280.50;5508130;28;1116;-67
2022/09/23 01:10:02;;;;;;;;;;;;;;;;;;5508095;28;1988;-67
2022/09/23 01:12:44;;;;;;;;;;;;;;;;;;5508583;28;1057;-67
2022/09/23 01:15:34;;;;;;;;;;;;;;;19.96;nan;95284.22;5498280;28;1304;-65
2022/09/23 01:18:17;;;;;;;;;;;;;;;;;;5510727;28;694;-67
2022/09/23 01:21:15;;;;;;;;;;;;;;;19.96;nan;95289.53;5512413;28;1091;-67
2022/09/23 01:24:15;;;;;;;;;;;;;;;19.97;nan;95291.19;5511587;28;1097;-67
2022/09/23 01:27:05;;;;;;;;;;;;;;;19.95;nan;95287.91;5502843;28;1356;-67
2022/09/23 01:30:01;;;;;;;;;;;;;;;19.95;nan;95282.56;5510983;28;1971;-67
2022/09/23 01:32:54;;;;;;;;;;;;;;;19.96;nan;95289.53;5512410;28;1081;-67
2022/09/23 01:35:42;;;;;;;;;;;;;;;19.95;nan;95294.06;5512702;28;1085;-65
2022/09/23 01:38:25;;;;;;;;;;;;;;;;;;5502820;28;1428;-65
2022/09/23 01:41:14;;;;;;;;;;;;;;;19.96;nan;95300.22;5512039;28;1017;-65
2022/09/23 01:44:00;;;;;;;;;;;;;;;19.95;nan;95303.91;5511874;28;1034;-65
2022/09/23 01:46:49;;;;;;;;;;;;;;;19.93;nan;95290.75;5511553;28;1265;-65
2022/09/23 01:49:39;;;;;;;;;;;;;;;19.93;nan;95301.44;5502933;28;2166;-66
2022/09/23 01:52:26;;;;;;;;;;;;;;;19.92;nan;95288.28;5510927;28;1384;-66
2022/09/23 01:55:12;;;;;;;;;;;;;;;19.92;nan;95283.78;5511773;28;1001;-68
2022/09/23 01:57:55;;;;;;;;;;;;;;;;;;5511855;28;1092;-65
2022/09/23 02:00:40;;;;;;;;;;;;;;;19.92;nan;95283.78;5501861;28;1281;-65
2022/09/23 02:03:26;;;;;;;;;;;;;;;19.92;nan;95288.28;5511846;28;1044;-64
2022/09/23 02:06:12;;;;;;;;;;;;;;;19.92;nan;95282.94;5511503;28;1068;-64
2022/09/23 02:08:59;;;;;;;;;;;;;;;19.95;nan;95282.56;5510892;28;1879;-64
2022/09/23 02:11:44;;;;;;;;;;;;;;;19.91;nan;95286.66;5502810;28;1517;-64
2022/09/23 02:14:31;;;;;;;;;;;;;;;19.91;nan;95282.13;5511123;28;864;-64
2022/09/23 02:17:13;;;;;;;;;;;;;;;;;;5511968;28;990;-64
2022/09/23 02:20:01;;;;;;;;;;;;;;;19.89;nan;95274.34;5511001;28;1119;-65
2022/09/23 02:22:49;;;;;;;;;;;;;;;19.89;nan;95290.34;5502958;28;1104;-65
2022/09/23 02:25:37;;;;;;;;;;;;;;;19.88;nan;95278.03;5511957;28;1107;-65
2022/09/23 02:28:19;;;;;;;;;;;;;;;;;;5511834;28;1096;-65
2022/09/23 02:31:07;;;;;;;;;;;;;;;19.91;nan;95270.66;5511545;28;1983;-65
2022/09/23 02:33:54;;;;;;;;;;;;;;;19.91;nan;95281.31;5503636;28;1390;-65
2022/09/23 02:36:43;;;;;;;;;;;;;;;19.88;nan;95293.19;5511317;28;1246;-65
2022/09/23 02:39:26;;;;;;;;;;;;;;;;;;5511565;28;1068;-66
2022/09/23 02:42:13;;;;;;;;;;;;;;;19.88;nan;95287.88;5511119;28;1172;-65
2022/09/23 02:44:57;;;;;;;;;;;;;;;;;;5506532;28;1154;-66
2022/09/23 02:47:42;;;;;;;;;;;;;;;19.87;nan;95292.38;5507556;28;1135;-65
2022/09/23 02:50:25;;;;;;;;;;;;;;;19.88;nan;95298.53;5512008;28;1980;-65
2022/09/23 02:53:08;;;;;;;;;;;;;;;19.88;nan;95293.19;5510481;28;1254;-66
2022/09/23 02:55:51;;;;;;;;;;;;;;;19.87;nan;95292.38;5507165;28;1244;-67
2022/09/23 02:58:34;;;;;;;;;;;;;;;;;;5505753;28;1116;-65
2022/09/23 03:01:25;;;;;;;;;;;;;;;19.86;nan;95301.41;5510444;28;1262;-66
2022/09/23 03:04:13;;;;;;;;;;;;;;;19.86;nan;95300.56;5511520;28;1013;-66
2022/09/23 03:06:56;;;;;;;;;;;;;;;;;;5510948;28;973;-65
2022/09/23 03:09:41;;;;;;;;;;;;;;;19.86;nan;95295.25;5501399;28;1902;-65
2022/09/23 03:12:33;;;;;;;;;;;;;;;19.85;nan;95298.94;5510787;28;1054;-65
2022/09/23 03:15:21;;;;;;;;;;;;;;;19.84;nan;95298.13;5509995;28;1339;-65
2022/09/23 03:18:10;;;;;;;;;;;;;;;19.85;nan;95299.75;5510880;28;1061;-67
2022/09/23 03:20:56;;;;;;;;;;;;;;;19.85;nan;95293.59;5501191;28;1578;-65
2022/09/23 03:23:40;;;;;;;;;;;;;;;19.83;nan;95307.16;5511126;28;1045;-65
2022/09/23 03:26:23;;;;;;;;;;;;;;;;;;5510476;28;1034;-65
2022/09/23 03:29:08;;;;;;;;;;;;;;;19.84;nan;95297.31;5510536;28;1084;-65
2022/09/23 03:31:51;;;;;;;;;;;;;;;19.82;nan;95300.16;5501409;28;1152;-65
2022/09/23 03:34:36;;;;;;;;;;;;;;;19.83;nan;95296.50;5510536;28;1010;-66
2022/09/23 03:37:19;;;;;;;;;;;;;;;;;;5509782;28;821;-65
2022/09/23 03:40:05;;;;;;;;;;;;;;;19.83;nan;95284.97;5509894;28;1076;-71
2022/09/23 03:42:48;;;;;;;;;;;;;;;;;;5501187;28;1305;-65
2022/09/23 03:45:31;;;;;;;;;;;;;;;;;;5510209;28;1088;-68
2022/09/23 03:48:14;;;;;;;;;;;;;;;19.81;nan;95303.84;5509997;28;965;-65
2022/09/23 03:50:59;;;;;;;;;;;;;;;19.81;nan;95303.84;5509687;28;1910;-65
2022/09/23 03:53:42;;;;;;;;;;;;;;;19.81;nan;95308.38;5500184;28;1708;-65
2022/09/23 03:56:24;;;;;;;;;;;;;;;19.79;nan;95305.88;5509792;28;998;-65
2022/09/23 03:59:07;;;;;;;;;;;;;;;19.80;nan;95312.84;5508783;28;1037;-65
2022/09/23 04:01:51;;;;;;;;;;;;;;;19.82;nan;95304.66;5509336;28;1105;-65
2022/09/23 04:04:33;;;;;;;;;;;;;;;;;;5502809;28;1352;-66
2022/09/23 04:07:17;;;;;;;;;;;;;;;19.82;nan;95320.69;5507258;28;1129;-65
2022/09/23 04:10:00;;;;;;;;;;;;;;;19.82;nan;95321.50;5509381;28;1914;-64
2022/09/23 04:12:43;;;;;;;;;;;;;;;;;;5508897;28;1005;-65
2022/09/23 04:15:25;;;;;;;;;;;;;;;19.79;nan;95321.88;5505368;28;1297;-64
2022/09/23 04:18:08;;;;;;;;;;;;;;;19.79;nan;95316.56;5504673;28;1177;-64
2022/09/23 04:20:51;;;;;;;;;;;;;;;;;;5509185;28;962;-64
2022/09/23 04:23:33;;;;;;;;;;;;;;;;;;5509609;28;1152;-67
2022/09/23 04:26:18;;;;;;;;;;;;;;;19.79;nan;95321.06;5509417;28;1121;-65
2022/09/23 04:29:01;;;;;;;;;;;;;;;19.79;nan;95311.22;5499885;28;1235;-64
2022/09/23 04:31:43;;;;;;;;;;;;;;;;;;5509054;28;1910;-64
2022/09/23 04:34:26;;;;;;;;;;;;;;;19.80;nan;95338.69;5509574;28;1160;-64
2022/09/23 04:37:09;;;;;;;;;;;;;;;19.79;nan;95337.06;5509299;28;990;-66
2022/09/23 04:39:51;;;;;;;;;;;;;;;;;;5500268;28;1167;-64
2022/09/23 04:42:36;;;;;;;;;;;;;;;19.81;nan;95341.19;5508424;28;1183;-65
2022/09/23 04:45:18;;;;;;;;;;;;;;;19.80;nan;95349.38;5509360;28;833;-65
2022/09/23 04:48:02;;;;;;;;;;;;;;;19.81;nan;95351.84;5509428;28;1005;-64
2022/09/23 04:50:45;;;;;;;;;;;;;;;19.79;nan;95353.06;5499450;28;1918;-65
2022/09/23 04:53:27;;;;;;;;;;;;;;;;;;5511770;28;1224;-64
2022/09/23 04:56:11;;;;;;;;;;;;;;;19.78;nan;95362.91;5513283;28;1080;-65
2022/09/23 04:58:57;;;;;;;;;;;;;;;19.77;nan;95350.59;5512746;28;1025;-65
2022/09/23 05:01:39;;;;;;;;;;;;;;;19.78;nan;95352.25;5503826;28;1077;-64
2022/09/23 05:04:22;;;;;;;;;;;;;;;19.78;nan;95362.91;5512610;28;1229;-65
2022/09/23 05:07:05;;;;;;;;;;;;;;;19.77;nan;95366.59;5513595;28;1089;-64
2022/09/23 05:09:48;;;;;;;;;;;;;;;19.79;nan;95369.06;5513424;28;1029;-64
2022/09/23 05:12:31;;;;;;;;;;;;;;;;;;5507560;28;1914;-64
2022/09/23 05:15:15;;;;;;;;;;;;;;;19.81;nan;95362.53;5508205;28;1128;-64
2022/09/23 05:17:58;;;;;;;;;;;;;;;19.80;nan;95371.53;5513107;28;997;-65
2022/09/23 05:20:41;;;;;;;;;;;;;;;19.81;nan;95367.03;5512675;28;994;-64
2022/09/23 05:23:24;;;;;;;;;;;;;;;;;;5509661;28;1373;-66
2022/09/23 05:26:07;;;;;;;;;;;;;;;19.83;nan;95375.63;5507318;28;1112;-64
2022/09/23 05:28:50;;;;;;;;;;;;;;;;;;5512203;28;1025;-64
2022/09/23 05:31:35;;;;;;;;;;;;;;;19.88;nan;95384.69;5512260;28;1914;-65
2022/09/23 05:34:18;;;;;;;;;;;;;;;;;;5511834;28;1074;-65
2022/09/23 05:37:01;;;;;;;;;;;;;;;19.95;nan;95378.59;5503261;28;1169;-65
2022/09/23 05:39:44;;;;;;;;;;;;;;;19.92;nan;95379.81;5512670;28;1113;-65
2022/09/23 05:42:27;;;;;;;;;;;;;;;19.91;nan;95377.31;5511972;28;1056;-65
2022/09/23 05:45:10;;;;;;;;;;;;;;;19.91;nan;95377.31;5512186;28;1065;-65
2022/09/23 05:47:54;;;;;;;;;;;;;;;19.95;nan;95379.41;5503312;28;1123;-64
2022/09/23 05:50:37;;;;;;;;;;;;;;;20.04;nan;95377.38;5512092;28;1911;-65
2022/09/23 05:53:20;;;;;;;;;;;;;;;20.07;nan;95382.31;5511365;28;1307;-65
2022/09/23 05:56:03;;;;;;;;;;;;;;;20.10;nan;95376.59;5511997;28;1105;-66
2022/09/23 05:58:48;;;;;;;;;;;;;;;20.12;nan;95379.88;5502775;28;1176;-67
2022/09/23 06:01:32;;;;;;;;;;;;;;;20.17;nan;95371.25;5512375;28;1092;-70
2022/09/23 06:04:17;;;;;;;;;;;;;;;20.22;nan;95369.66;5511391;28;1100;-66
2022/09/23 06:07:00;;;;;;;;;;;;;;;20.25;nan;95373.75;5512166;28;1041;-65
2022/09/23 06:09:45;;;;;;;;;;;;;;;20.25;nan;95363.91;5503548;28;1466;-65
2022/09/23 06:12:28;;;;;;;;;;;;;;;20.28;nan;95358.16;5510437;28;1918;-66
2022/09/23 06:15:10;;;;;;;;;;;;;;;;;;5511645;28;990;-63
2022/09/23 06:17:53;;;;;;;;;;;;;;;20.29;nan;95370.50;5511841;28;1183;-66
2022/09/23 06:20:38;;;;;;;;;;;;;;;20.30;nan;95366.78;5506695;28;1095;-65
2022/09/23 06:23:22;;;;;;;;;;;;;;;20.29;nan;95365.16;5507074;28;1045;-64
2022/09/23 06:26:07;;;;;;;;;;;;;;;;;;5511612;28;1037;-63
2022/09/23 06:28:50;;;;;;;;;;;;;;;20.30;nan;95371.31;5511512;28;1171;-64
2022/09/23 06:31:33;;;;;;;;;;;;;;;20.31;nan;95356.94;5508230;28;2001;-67
2022/09/23 06:34:16;;;;;;;;;;;;;;;20.30;nan;95355.31;5506158;28;1018;-66
2022/09/23 06:37:00;;;;;;;;;;;;;;;20.31;nan;95357.75;5511228;28;1041;-65
2022/09/23 06:39:56;;;;;;;;;;;;;;;20.31;nan;95352.41;5511452;28;998;-65
2022/09/23 06:42:38;;;;;;;;;;;;;;;;;;5510310;28;1093;-66
2022/09/23 06:45:22;;;;;;;;;;;;;;;20.31;nan;95363.09;5502757;28;1071;-66
2022/09/23 06:48:07;;;;;;;;;;;;;;;20.32;nan;95364.75;5510693;28;1261;-65
2022/09/23 06:50:49;;;;;;;;;;;;;;;20.33;nan;95365.56;5511288;28;998;-66
2022/09/23 06:53:32;;;;;;;;;;;;;;;;;;5510442;28;1371;-66
2022/09/23 06:56:18;;;;;;;;;;;;;;;20.30;nan;95366.78;5501269;28;1242;-65
2022/09/23 06:59:01;;;;;;;;;;;;;;;20.32;nan;95374.63;5510808;28;1002;-65
2022/09/23 07:01:46;;;;;;;;;;;;;;;20.33;nan;95355.72;5510935;28;1132;-65
2022/09/23 07:04:29;;;;;;;;;;;;;;;;;;5510019;28;981;-66
2022/09/23 07:07:12;;;;;;;;;;;;;;;20.36;nan;95381.19;5501911;28;1191;-66
2022/09/23 07:09:55;;;;;;;;;;;;;;;20.39;nan;95385.31;5511131;28;997;-65
2022/09/23 07:12:40;;;;;;;;;;;;;;;20.41;nan;95393.97;5510080;28;1915;-64
2022/09/23 07:15:23;;;;;;;;;;;;;;;20.43;nan;95386.56;5509581;28;1104;-64
2022/09/23 07:18:06;;;;;;;;;;;;;;;20.45;nan;95401.34;5501468;28;1361;-64
2022/09/23 07:20:49;;;;;;;;;;;;;;;20.47;nan;95403.84;5510521;28;1014;-65
2022/09/23 07:23:32;;;;;;;;;;;;;;;20.50;nan;95398.91;5510363;28;1029;-65
2022/09/23 07:26:15;;;;;;;;;;;;;;;20.52;nan;95402.22;5509510;28;1195;-66
2022/09/23 07:29:03;;;;;;;;;;;;;;;20.53;nan;95398.50;5501813;28;1018;-65
2022/09/23 07:31:46;;;;;;;;;;;;;;;20.53;nan;95403.84;5509886;28;1902;-66
2022/09/23 07:34:29;;;;;;;;;;;;;;;20.56;nan;95402.63;5508977;28;1050;-66
2022/09/23 07:37:12;;;;;;;;;;;;;;;20.55;nan;95407.13;5509690;28;1006;-67
2022/09/23 07:39:55;;;;;;;;;;;;;;;20.58;nan;95399.75;5504750;28;1268;-64
2022/09/23 07:42:39;;;;;;;;;;;;;;;;;;5505033;28;1093;-65
2022/09/23 07:45:24;;;;;;;;;;;;;;;20.58;nan;95405.09;5509235;28;1112;-65
2022/09/23 07:48:07;;;;;;;;;;;;;;;20.58;nan;95411.25;5509023;28;1577;-64
2022/09/23 07:50:49;;;;;;;;;;;;;;;20.53;nan;95413.69;5507162;28;1397;-68
2022/09/23 07:53:32;;;;;;;;;;;;;;;20.56;nan;95413.28;5503786;28;1981;-66
2022/09/23 07:56:17;;;;;;;;;;;;;;;20.55;nan;95406.31;5509080;28;1034;-65
2022/09/23 07:59:02;;;;;;;;;;;;;;;20.51;nan;95405.88;5509690;28;1286;-64
2022/09/23 08:01:47;;;;;;;;;;;;;;;20.53;nan;95424.38;5510107;28;1091;-64
2022/09/23 08:04:31;;;;;;;;;;;;;;;20.55;nan;95417.00;5500247;28;1129;-64
2022/09/23 08:07:15;;;;;;;;;;;;;;;20.53;nan;95409.19;5509952;28;1120;-65
2022/09/23 08:09:58;;;;;;;;;;;;;;;;;;5509389;28;1065;-65
2022/09/23 08:12:40;;;;;;;;;;;;;;;;;;5510455;28;1926;-65
2022/09/23 08:15:23;;;;;;;;;;;;;;;20.55;nan;95411.66;5500170;28;1314;-65
2022/09/23 08:18:07;;;;;;;;;;;;;;;20.55;nan;95406.31;5509680;28;1068;-65
2022/09/23 08:20:50;;;;;;;;;;;;;;;20.55;nan;95406.31;5509677;28;1120;-67
2022/09/23 08:23:33;;;;;;;;;;;;;;;20.54;nan;95394.81;5510098;28;1026;-64
2022/09/23 08:26:16;;;;;;;;;;;;;;;20.52;nan;95396.06;5501140;28;1162;-65
2022/09/23 08:29:03;;;;;;;;;;;;;;;20.52;nan;95396.06;5514262;28;1104;-64
2022/09/23 08:31:47;;;;;;;;;;;;;;;20.51;nan;95389.88;5513922;28;1987;-64
2022/09/23 08:34:31;;;;;;;;;;;;;;;20.51;nan;95389.88;5514233;28;1066;-65
2022/09/23 08:37:14;;;;;;;;;;;;;;;20.51;nan;95389.88;5505100;28;1421;-65
2022/09/23 08:39:56;;;;;;;;;;;;;;;20.49;nan;95386.59;5513091;28;1210;-65
2022/09/23 08:42:39;;;;;;;;;;;;;;;;;;5513833;28;781;-65
2022/09/23 08:45:24;;;;;;;;;;;;;;;20.45;nan;95395.19;5512695;28;1195;-64
2022/09/23 08:48:11;;;;;;;;;;;;;;;20.46;nan;95386.16;5509133;28;1197;-64
2022/09/23 08:50:58;;;;;;;;;;;;;;;20.45;nan;95380.00;5510907;28;1106;-67
2022/09/23 08:53:41;;;;;;;;;;;;;;;;;;5513270;28;1982;-67
2022/09/23 08:56:24;;;;;;;;;;;;;;;20.43;nan;95391.91;5513320;28;998;-64
2022/09/23 08:59:10;;;;;;;;;;;;;;;20.44;nan;95388.22;5509115;28;1077;-65
2022/09/23 09:01:53;;;;;;;;;;;;;;;20.43;nan;95376.72;5511414;28;1071;-66
2022/09/23 09:04:41;;;;;;;;;;;;;;;20.44;nan;95377.53;5515384;28;1176;-65
2022/09/23 09:07:28;;;;;;;;;;;;;;;20.42;nan;95385.75;5514592;28;1013;-64
2022/09/23 09:10:19;;;;;;;;;;;;;;;;;;5513034;28;1404;-66
2022/09/23 09:13:06;;;;;;;;;;;;;;;20.42;nan;95363.56;5510837;28;1906;-65
2022/09/23 09:15:48;;;;;;;;;;;;;;;;;;5514734;28;1006;-64
2022/09/23 09:18:31;;;;;;;;;;;;;;;;;;5515856;28;1096;-65
2022/09/23 09:21:14;;;;;;;;;;;;;;;20.41;nan;95388.63;5515304;28;1068;-63
2022/09/23 09:23:59;;;;;;;;;;;;;;;20.40;nan;95382.44;5506648;28;1183;-65
2022/09/23 09:26:42;;;;;;;;;;;;;;;;;;5515510;28;1064;-64
2022/09/23 09:29:27;;;;;;;;;;;;;;;20.40;nan;95376.28;5515784;28;1084;-64
2022/09/23 09:32:16;;;;;;;;;;;;;;;;;;5515355;28;1926;-66
2022/09/23 09:35:01;;;;;;;;;;;;;;;20.38;nan;95368.50;5506082;28;1167;-64
2022/09/23 09:37:46;;;;;;;;;;;;;;;20.37;nan;95366.84;5514421;28;1049;-64
2022/09/23 09:40:28;;;;;;;;;;;;;;;;;;5515645;28;1175;-66
2022/09/23 09:43:22;;;;;;;;;;;;;;;20.36;nan;95370.50;5516964;28;1128;-67
2022/09/23 09:46:04;;;;;;;;;;;;;;;;;;5505916;28;1380;-64
2022/09/23 09:48:49;;;;;;;;;;;;;;;;;;5515156;28;1000;-65
2022/09/23 09:51:32;;;;;;;;;;;;;;;;;;5516225;28;1136;-66
2022/09/23 09:54:15;;;;;;;;;;;;;;;;;;5513986;28;1975;-66
2022/09/23 09:56:57;;;;;;;;;;;;;;;;;;5506187;28;1457;-65
2022/09/23 09:59:43;;;;;;;;;;;;;;;;;;5513783;28;1157;-66
2022/09/23 10:02:29;;;;;;;;;;;;;;;20.35;nan;95363.53;5515075;28;1085;-66
2022/09/23 10:05:12;;;;;;;;;;;;;;;;;;5514857;28;994;-65
2022/09/23 10:07:55;;;;;;;;;;;;;;;;;;5505920;28;1274;-64
2022/09/23 10:10:37;;;;;;;;;;;;;;;;;;5514967;28;1220;-64
2022/09/23 10:13:22;;;;;;;;;;;;;;;20.35;nan;95358.19;5514164;28;1910;-65
2022/09/23 10:16:05;;;;;;;;;;;;;;;;;;5514353;28;1029;-66
2022/09/23 10:18:48;;;;;;;;;;;;;;;;;;5510870;28;1246;-64
2022/09/23 10:21:36;;;;;;;;;;;;;;;20.33;nan;95350.38;5509703;28;1072;-64
2022/09/23 10:24:21;;;;;;;;;;;;;;;20.34;nan;95346.72;5513730;28;930;-66
2022/09/23 10:27:07;;;;;;;;;;;;;;;20.33;nan;95350.38;5515298;28;783;-64
2022/09/23 10:29:51;;;;;;;;;;;;;;;20.33;nan;95339.69;5512120;28;1324;-66
2022/09/23 10:32:36;;;;;;;;;;;;;;;20.33;nan;95339.69;5510442;28;1065;-64
2022/09/23 10:35:21;;;;;;;;;;;;;;;20.33;nan;95334.38;5513542;28;1894;-65
2022/09/23 10:38:07;;;;;;;;;;;;;;;20.33;nan;95345.03;5514029;28;1181;-65
2022/09/23 10:47:08;;;;;;;;;;;;;;;20.32;nan;95337.25;5513742;28;977;-64
2022/09/23 10:50:00;;;;;;;;;;;;;;;20.33;nan;95338.88;5513844;28;1049;-65
2022/09/23 10:52:46;;;;;;;;;;;;;;;20.31;nan;95336.41;5510465;28;1342;-64
2022/09/23 10:55:48;;;;;;;;;;;;;;;20.31;nan;95325.72;5509663;28;1907;-67
2022/09/23 10:58:50;;;;;;;;;;;;;;;20.31;nan;95324.91;5515407;28;716;-68
2022/09/23 11:01:37;;;;;;;;;;;;;;;20.31;nan;95325.72;5514772;28;1025;-65
2022/09/23 11:04:31;;;;;;;;;;;;;;;20.31;nan;95331.06;5510016;28;1097;-64
2022/09/23 11:07:21;;;;;;;;;;;;;;;20.30;nan;95318.75;5512683;28;1026;-64
2022/09/23 11:10:13;;;;;;;;;;;;;;;20.31;nan;95308.91;5514325;28;973;-64
2022/09/23 11:13:16;;;;;;;;;;;;;;;20.30;nan;95312.59;5513453;28;1968;-64
2022/09/23 11:16:06;;;;;;;;;;;;;;;20.30;nan;95308.09;5503397;28;1514;-65
2022/09/23 11:18:57;;;;;;;;;;;;;;;20.29;nan;95301.13;5513356;28;1078;-64
2022/09/23 11:21:50;;;;;;;;;;;;;;;20.29;nan;95301.13;5514309;28;1036;-65
2022/09/23 11:24:39;;;;;;;;;;;;;;;20.29;nan;95306.44;5511423;28;982;-64
2022/09/23 11:27:29;;;;;;;;;;;;;;;20.29;nan;95301.13;5501592;28;1385;-65
2022/09/23 11:30:16;;;;;;;;;;;;;;;20.28;nan;95288.78;5510279;28;1104;-64
2022/09/23 11:33:01;;;;;;;;;;;;;;;;;;5511012;28;1045;-64
2022/09/23 11:35:48;;;;;;;;;;;;;;;20.28;nan;95299.44;5510763;28;1907;-65
2022/09/23 11:38:32;;;;;;;;;;;;;;;20.30;nan;95301.94;5504581;28;1420;-65
2022/09/23 11:41:16;;;;;;;;;;;;;;;;;;5508101;28;1165;-65
2022/09/23 11:44:03;;;;;;;;;;;;;;;20.28;nan;95278.09;5509761;28;815;-64
2022/09/23 11:46:45;;;;;;;;;;;;;;;;;;5509604;28;1065;-64
2022/09/23 11:49:31;;;;;;;;;;;;;;;20.29;nan;95279.78;5505131;28;1387;-68
2022/09/23 11:52:18;;;;;;;;;;;;;;;20.27;nan;95276.47;5504794;28;1347;-64
2022/09/23 11:55:03;;;;;;;;;;;;;;;20.28;nan;95277.28;5509504;28;1914;-65
2022/09/23 11:57:58;;;;;;;;;;;;;;;20.28;nan;95266.63;5509492;28;1097;-65
2022/09/23 12:00:41;;;;;;;;;;;;;;;;;;5505458;28;1397;-65
2022/09/23 12:03:34;;;;;;;;;;;;;;;20.28;nan;95277.28;5505195;28;1133;-65
2022/09/23 12:06:31;;;;;;;;;;;;;;;20.29;nan;95273.63;5508699;28;1097;-64
2022/09/23 12:09:19;;;;;;;;;;;;;;;20.29;nan;95278.94;5509140;28;982;-65
2022/09/23 12:12:20;;;;;;;;;;;;;;;20.28;nan;95271.94;5505047;28;1423;-65
2022/09/23 12:15:12;;;;;;;;;;;;;;;20.28;nan;95266.63;5504454;28;1902;-65
2022/09/23 12:17:55;;;;;;;;;;;;;;;;;;5509211;28;1072;-65
2022/09/23 12:20:50;;;;;;;;;;;;;;;20.28;nan;95278.09;5508937;28;1159;-65
2022/09/23 12:23:42;;;;;;;;;;;;;;;20.28;nan;95267.44;5504969;28;1120;-65
2022/09/23 12:26:26;;;;;;;;;;;;;;;20.29;nan;95274.44;5504744;28;1102;-65
2022/09/23 12:29:09;;;;;;;;;;;;;;;;;;5508674;28;1167;-66
2022/09/23 12:31:52;;;;;;;;;;;;;;;20.28;nan;95272.78;5508867;28;1155;-65
2022/09/23 12:34:40;;;;;;;;;;;;;;;20.27;nan;95271.13;5508808;28;1910;-65
2022/09/23 12:37:25;;;;;;;;;;;;;;;20.28;nan;95271.94;5503254;28;983;-65
2022/09/23 12:40:20;;;;;;;;;;;;;;;20.27;nan;95265.81;5509002;28;1061;-65
2022/09/23 12:43:03;;;;;;;;;;;;;;;20.26;nan;95264.16;5508769;28;1081;-65
2022/09/23 12:45:46;;;;;;;;;;;;;;;20.27;nan;95264.97;5509308;28;1080;-65
2022/09/23 12:48:58;;;;;;;;;;;;;;;20.27;nan;95275.66;5499905;28;1196;-65
2022/09/23 12:52:01;;;;;;;;;;;;;;;20.26;nan;95264.16;5508490;28;1126;-66
2022/09/23 12:54:43;;;;;;;;;;;;;;;;;;5509248;28;1914;-65
2022/09/23 12:57:42;;;;;;;;;;;;;;;20.27;nan;95271.13;5506266;28;1124;-66
2022/09/23 13:00:26;;;;;;;;;;;;;;;20.27;nan;95270.31;5504142;28;1077;-65
2022/09/23 13:09:13;;;;;;;;;;;;;;;;;;5502502;28;1298;-67
2022/09/23 13:11:59;;;;;;;;;;;;;;;20.27;nan;95264.97;5506392;28;1195;-65
2022/09/23 13:14:45;;;;;;;;;;;;;;;20.25;nan;95267.03;5511365;28;1911;-65
2022/09/23 13:17:31;;;;;;;;;;;;;;;20.26;nan;95274.84;5512727;28;1077;-65
2022/09/23 13:20:33;;;;;;;;;;;;;;;20.26;nan;95263.31;5507590;28;1391;-65
2022/09/23 13:23:16;;;;;;;;;;;;;;;;;;5509816;28;1077;-65
2022/09/23 13:26:00;;;;;;;;;;;;;;;20.24;nan;95276.88;5512216;28;1144;-65
2022/09/23 13:28:43;;;;;;;;;;;;;;;;;;5512054;28;1001;-65
2022/09/23 13:31:27;;;;;;;;;;;;;;;20.25;nan;95267.03;5507701;28;1232;-65
2022/09/23 13:34:12;;;;;;;;;;;;;;;20.25;nan;95272.38;5507055;28;1977;-65
2022/09/23 13:36:55;;;;;;;;;;;;;;;;;;5511348;28;939;-65
2022/09/23 13:39:38;;;;;;;;;;;;;;;20.23;nan;95269.91;5512019;28;1041;-65
2022/09/23 13:42:20;;;;;;;;;;;;;;;;;;5511765;28;878;-68
2022/09/23 13:45:04;;;;;;;;;;;;;;;20.23;nan;95275.25;5503067;28;1242;-65
2022/09/23 13:47:50;;;;;;;;;;;;;;;20.23;nan;95269.06;5511645;28;1273;-65
2022/09/23 13:50:34;;;;;;;;;;;;;;;20.22;nan;95257.56;5511394;28;871;-66
2022/09/23 13:53:17;;;;;;;;;;;;;;;;;;5511532;28;1242;-65
2022/09/23 13:56:01;;;;;;;;;;;;;;;20.22;nan;95262.91;5502684;28;1969;-65
2022/09/23 13:58:44;;;;;;;;;;;;;;;20.22;nan;95256.75;5511076;28;1128;-66
2022/09/23 14:01:30;;;;;;;;;;;;;;;20.23;nan;95253.06;5511267;28;1077;-65
2022/09/23 14:04:12;;;;;;;;;;;;;;;;;;5511478;28;1048;-65
2022/09/23 14:06:57;;;;;;;;;;;;;;;20.22;nan;95246.09;5502130;28;1086;-67
2022/09/23 14:09:41;;;;;;;;;;;;;;;20.21;nan;95249.78;5511297;28;1180;-66
2022/09/23 14:12:23;;;;;;;;;;;;;;;;;;5511089;28;793;-67
2022/09/23 14:15:13;;;;;;;;;;;;;;;20.22;nan;95246.91;5511282;28;1906;-70
2022/09/23 14:18:02;;;;;;;;;;;;;;;20.21;nan;95245.28;5502874;28;1429;-66
2022/09/23 14:20:46;;;;;;;;;;;;;;;20.21;nan;95245.28;5510866;28;922;-66
2022/09/23 14:23:30;;;;;;;;;;;;;;;20.21;nan;95245.28;5510805;28;1009;-67
2022/09/23 14:26:13;;;;;;;;;;;;;;;20.20;nan;95243.59;5511034;28;1171;-65
2022/09/23 14:28:56;;;;;;;;;;;;;;;;;;5502246;28;1159;-65
2022/09/23 14:31:39;;;;;;;;;;;;;;;20.19;nan;95252.66;5510329;28;1088;-66
2022/09/23 14:34:21;;;;;;;;;;;;;;;;;;5510697;28;1081;-65
2022/09/23 14:40:13;;;;;;;;;;;;;;;20.20;nan;95232.13;5502149;28;1598;-64
2022/09/23 14:43:00;;;;;;;;;;;;;;;20.20;nan;95237.47;5510083;28;1093;-64
2022/09/23 14:45:42;;;;;;;;;;;;;;;;;;5510913;28;1077;-65
2022/09/23 14:48:26;;;;;;;;;;;;;;;20.20;nan;95232.94;5510742;28;1064;-66
2022/09/23 14:51:10;;;;;;;;;;;;;;;20.20;nan;95238.28;5505674;28;1271;-65
2022/09/23 14:54:13;;;;;;;;;;;;;;;20.20;nan;95232.94;5511368;28;1323;-64
2022/09/23 14:56:57;;;;;;;;;;;;;;;20.19;nan;95241.16;5512723;28;1985;-64
2022/09/23 14:59:47;;;;;;;;;;;;;;;20.19;nan;95236.66;5513008;28;1221;-65
2022/09/23 15:02:32;;;;;;;;;;;;;;;20.18;nan;95240.34;5509131;28;1105;-64
2022/09/23 15:05:15;;;;;;;;;;;;;;;;;;5508637;28;1234;-65
2022/09/23 15:07:58;;;;;;;;;;;;;;;;;;5513339;28;1104;-64
2022/09/23 15:10:41;;;;;;;;;;;;;;;20.17;nan;95238.69;5513757;28;1155;-64
2022/09/23 15:13:28;;;;;;;;;;;;;;;20.17;nan;95243.19;5509295;28;1024;-65
2022/09/23 15:16:13;;;;;;;;;;;;;;;20.18;nan;95239.53;5507381;28;1969;-65
2022/09/23 15:18:57;;;;;;;;;;;;;;;20.19;nan;95246.50;5512545;28;1101;-64
2022/09/23 15:21:43;;;;;;;;;;;;;;;20.17;nan;95243.19;5511678;28;952;-64
2022/09/23 15:24:36;;;;;;;;;;;;;;;20.17;nan;95243.19;5511169;28;974;-63
2022/09/23 15:27:19;;;;;;;;;;;;;;;;;;5504618;28;1059;-64
2022/09/23 15:30:10;;;;;;;;;;;;;;;20.16;nan;95247.72;5512793;28;1116;-65
2022/09/23 15:32:56;;;;;;;;;;;;;;;20.15;nan;95240.75;5513223;28;1113;-64
2022/09/23 15:35:42;;;;;;;;;;;;;;;20.15;nan;95240.75;5510430;28;1977;-64
2022/09/23 15:38:26;;;;;;;;;;;;;;;20.16;nan;95246.91;5504203;28;1331;-65
2022/09/23 15:41:09;;;;;;;;;;;;;;;20.15;nan;95256.75;5512496;28;1516;-65
2022/09/23 15:43:52;;;;;;;;;;;;;;;20.15;nan;95256.75;5512269;28;1033;-65
2022/09/23 15:46:37;;;;;;;;;;;;;;;20.15;nan;95255.94;5511349;28;1050;-65
2022/09/23 15:49:24;;;;;;;;;;;;;;;20.14;nan;95255.09;5503216;28;1134;-65
2022/09/23 15:52:11;;;;;;;;;;;;;;;20.15;nan;95256.75;5511899;28;1226;-65
2022/09/23 15:54:53;;;;;;;;;;;;;;;20.14;nan;95265.78;5513077;28;1002;-65
2022/09/23 15:57:37;;;;;;;;;;;;;;;;;;5512746;28;1922;-65
2022/09/23 16:00:20;;;;;;;;;;;;;;;20.15;nan;95267.44;5503350;28;1087;-66